RPV8789 LTFM-EGLL
Flight info
| Callsign | RPV8789 |
|---|---|
| Flight time | N/A |
| Altitude | 34000 |
| Route | TUDBU1D/35L TUDBU Q26 ETUBA DCT NAVOD DCT INVED DCT BEGLA/N0454F360 DCT DEXIT DCT INBED DCT BOMBI DCT ADKUV DCT BUB L608 LOGAN |
| Aircraft | A21N/M-SDE3FGHIRWY/LB1 |
Departure
| Time | 2026-05-06 05:59 |
|---|---|
| Airport | İstanbul Airport (LTFM) |
Arrival
| Time | N/A |
|---|---|
| Airport | London Heathrow Airport (EGLL) |
| Time | Latitude | Longitude | Altitude | Speed | Heading |
|---|---|---|---|---|---|
| 2026-05-06 04:42 | 41.26358 | 28.74082 | 334 ft | 0 kts | 143° |
| 2026-05-06 05:32 | 41.26369 | 28.74071 | 334 ft | 2 kts | 143° |
| 2026-05-06 05:32 | 41.26381 | 28.74059 | 334 ft | 2 kts | 143° |
| 2026-05-06 05:33 | 41.26393 | 28.74048 | 334 ft | 2 kts | 152° |
| 2026-05-06 05:33 | 41.26407 | 28.74039 | 334 ft | 2 kts | 158° |
| 2026-05-06 05:33 | 41.26421 | 28.74033 | 334 ft | 2 kts | 166° |
| 2026-05-06 05:33 | 41.26436 | 28.74029 | 334 ft | 2 kts | 174° |
| 2026-05-06 05:34 | 41.26451 | 28.74028 | 334 ft | 2 kts | 181° |
| 2026-05-06 05:34 | 41.26464 | 28.74028 | 334 ft | 0 kts | 179° |
| 2026-05-06 05:34 | 41.26465 | 28.74028 | 334 ft | 0 kts | 179° |
| 2026-05-06 05:36 | 41.26463 | 28.74028 | 334 ft | 0 kts | 179° |
| 2026-05-06 05:36 | 41.26456 | 28.74028 | 334 ft | 1 kts | 179° |
| 2026-05-06 05:36 | 41.26437 | 28.74026 | 334 ft | 3 kts | 192° |
| 2026-05-06 05:36 | 41.26410 | 28.74000 | 334 ft | 6 kts | 239° |
| 2026-05-06 05:37 | 41.26418 | 28.73939 | 334 ft | 8 kts | 318° |
| 2026-05-06 05:37 | 41.26479 | 28.73906 | 334 ft | 10 kts | 341° |
| 2026-05-06 05:37 | 41.26559 | 28.73879 | 334 ft | 12 kts | 356° |
| 2026-05-06 05:37 | 41.26654 | 28.73881 | 334 ft | 14 kts | 1° |
| 2026-05-06 05:38 | 41.26761 | 28.73879 | 334 ft | 15 kts | 358° |
| 2026-05-06 05:38 | 41.26868 | 28.73876 | 334 ft | 15 kts | 359° |
| 2026-05-06 05:38 | 41.26958 | 28.73928 | 334 ft | 15 kts | 65° |
| 2026-05-06 05:38 | 41.26965 | 28.74061 | 334 ft | 14 kts | 90° |
| 2026-05-06 05:39 | 41.26965 | 28.74194 | 334 ft | 14 kts | 90° |
| 2026-05-06 05:39 | 41.26966 | 28.74329 | 334 ft | 14 kts | 89° |
| 2026-05-06 05:39 | 41.26967 | 28.74465 | 334 ft | 14 kts | 90° |
| 2026-05-06 05:39 | 41.26968 | 28.74603 | 334 ft | 14 kts | 90° |
| 2026-05-06 05:40 | 41.26971 | 28.74741 | 334 ft | 15 kts | 89° |
| 2026-05-06 05:40 | 41.26973 | 28.74880 | 334 ft | 15 kts | 89° |
| 2026-05-06 05:40 | 41.26973 | 28.75020 | 334 ft | 15 kts | 91° |
| 2026-05-06 05:40 | 41.26973 | 28.75161 | 334 ft | 15 kts | 90° |
| 2026-05-06 05:41 | 41.26950 | 28.75287 | 334 ft | 14 kts | 150° |
| 2026-05-06 05:41 | 41.26847 | 28.75298 | 334 ft | 14 kts | 179° |
| 2026-05-06 05:41 | 41.26744 | 28.75301 | 334 ft | 14 kts | 179° |
| 2026-05-06 05:41 | 41.26642 | 28.75305 | 334 ft | 14 kts | 178° |
| 2026-05-06 05:42 | 41.26541 | 28.75309 | 334 ft | 14 kts | 179° |
| 2026-05-06 05:42 | 41.26440 | 28.75312 | 334 ft | 14 kts | 178° |
| 2026-05-06 05:42 | 41.26341 | 28.75329 | 334 ft | 13 kts | 143° |
| 2026-05-06 05:42 | 41.26326 | 28.75446 | 334 ft | 12 kts | 89° |
| 2026-05-06 05:43 | 41.26327 | 28.75509 | 334 ft | 2 kts | 89° |
| 2026-05-06 05:43 | 41.26327 | 28.75512 | 334 ft | 0 kts | 89° |
| 2026-05-06 05:48 | 41.26327 | 28.75514 | 334 ft | 0 kts | 89° |
| 2026-05-06 05:48 | 41.26327 | 28.75524 | 334 ft | 1 kts | 89° |
| 2026-05-06 05:48 | 41.26328 | 28.75552 | 334 ft | 5 kts | 89° |
| 2026-05-06 05:48 | 41.26329 | 28.75607 | 334 ft | 6 kts | 87° |
| 2026-05-06 05:49 | 41.26358 | 28.75654 | 334 ft | 10 kts | 15° |
| 2026-05-06 05:49 | 41.26413 | 28.75572 | 334 ft | 14 kts | 275° |
| 2026-05-06 05:49 | 41.26429 | 28.75445 | 334 ft | 14 kts | 312° |
| 2026-05-06 05:49 | 41.26525 | 28.75422 | 334 ft | 14 kts | 359° |
| 2026-05-06 05:50 | 41.26625 | 28.75420 | 334 ft | 14 kts | 359° |
| 2026-05-06 05:50 | 41.26727 | 28.75417 | 334 ft | 14 kts | 358° |
| 2026-05-06 05:50 | 41.26831 | 28.75410 | 334 ft | 14 kts | 356° |
| 2026-05-06 05:50 | 41.26935 | 28.75402 | 334 ft | 15 kts | 357° |
| 2026-05-06 05:51 | 41.27038 | 28.75386 | 334 ft | 14 kts | 329° |
| 2026-05-06 05:51 | 41.27063 | 28.75262 | 334 ft | 14 kts | 269° |
| 2026-05-06 05:51 | 41.27060 | 28.75127 | 334 ft | 14 kts | 268° |
| 2026-05-06 05:51 | 41.27059 | 28.74989 | 334 ft | 14 kts | 270° |
| 2026-05-06 05:52 | 41.27057 | 28.74851 | 334 ft | 14 kts | 269° |
| 2026-05-06 05:52 | 41.27058 | 28.74713 | 334 ft | 15 kts | 270° |
| 2026-05-06 05:52 | 41.27057 | 28.74573 | 334 ft | 15 kts | 269° |
| 2026-05-06 05:52 | 41.27055 | 28.74433 | 334 ft | 15 kts | 268° |
| 2026-05-06 05:53 | 41.27052 | 28.74293 | 334 ft | 15 kts | 269° |
| 2026-05-06 05:53 | 41.27050 | 28.74153 | 334 ft | 15 kts | 269° |
| 2026-05-06 05:53 | 41.27050 | 28.74011 | 334 ft | 15 kts | 270° |
| 2026-05-06 05:53 | 41.27049 | 28.73869 | 334 ft | 15 kts | 269° |
| 2026-05-06 05:54 | 41.27047 | 28.73728 | 334 ft | 15 kts | 269° |
| 2026-05-06 05:54 | 41.27045 | 28.73585 | 334 ft | 15 kts | 270° |
| 2026-05-06 05:54 | 41.27045 | 28.73444 | 334 ft | 15 kts | 270° |
| 2026-05-06 05:54 | 41.27043 | 28.73301 | 334 ft | 15 kts | 269° |
| 2026-05-06 05:55 | 41.27042 | 28.73159 | 334 ft | 14 kts | 262° |
| 2026-05-06 05:55 | 41.26956 | 28.73110 | 334 ft | 14 kts | 179° |
| 2026-05-06 05:55 | 41.26856 | 28.73111 | 334 ft | 14 kts | 179° |
| 2026-05-06 05:55 | 41.26757 | 28.73112 | 334 ft | 14 kts | 180° |
| 2026-05-06 05:56 | 41.26656 | 28.73112 | 334 ft | 14 kts | 180° |
| 2026-05-06 05:56 | 41.26556 | 28.73112 | 334 ft | 14 kts | 180° |
| 2026-05-06 05:56 | 41.26456 | 28.73112 | 334 ft | 14 kts | 180° |
| 2026-05-06 05:56 | 41.26356 | 28.73113 | 334 ft | 14 kts | 180° |
| 2026-05-06 05:57 | 41.26257 | 28.73112 | 334 ft | 14 kts | 193° |
| 2026-05-06 05:57 | 41.26217 | 28.73006 | 334 ft | 14 kts | 270° |
| 2026-05-06 05:57 | 41.26215 | 28.72876 | 334 ft | 14 kts | 269° |
| 2026-05-06 05:57 | 41.26214 | 28.72743 | 334 ft | 14 kts | 269° |
| 2026-05-06 05:58 | 41.26212 | 28.72607 | 334 ft | 14 kts | 268° |
| 2026-05-06 05:58 | 41.26270 | 28.72520 | 334 ft | 14 kts | 352° |
| 2026-05-06 05:58 | 41.26487 | 28.72515 | 334 ft | 66 kts | 359° |
| 2026-05-06 05:58 | 41.27216 | 28.72501 | 334 ft | 140 kts | 359° |
| 2026-05-06 05:59 | 41.28374 | 28.72474 | 525 ft | 181 kts | 359° |
| 2026-05-06 05:59 | 41.29648 | 28.72455 | 1330 ft | 184 kts | 359° |
| 2026-05-06 05:59 | 41.30896 | 28.72456 | 2202 ft | 179 kts | 359° |
| 2026-05-06 05:59 | 41.32190 | 28.72473 | 2809 ft | 195 kts | 359° |
| 2026-05-06 06:00 | 41.33594 | 28.72494 | 3426 ft | 212 kts | 359° |
| 2026-05-06 06:00 | 41.35146 | 28.72511 | 3969 ft | 235 kts | 359° |
| 2026-05-06 06:00 | 41.36855 | 28.72525 | 4684 ft | 252 kts | 358° |
| 2026-05-06 06:00 | 41.38571 | 28.72184 | 5570 ft | 250 kts | 344° |
| 2026-05-06 06:01 | 41.40190 | 28.71327 | 6328 ft | 252 kts | 336° |
| 2026-05-06 06:01 | 41.41769 | 28.70322 | 7081 ft | 254 kts | 336° |
| 2026-05-06 06:01 | 41.43348 | 28.69301 | 7780 ft | 256 kts | 336° |
| 2026-05-06 06:01 | 41.44950 | 28.68269 | 8459 ft | 259 kts | 336° |
| 2026-05-06 06:02 | 41.46576 | 28.67223 | 9123 ft | 261 kts | 337° |
| 2026-05-06 06:02 | 41.48213 | 28.66173 | 9765 ft | 264 kts | 337° |
| 2026-05-06 06:02 | 41.49880 | 28.65107 | 10355 ft | 269 kts | 337° |
| 2026-05-06 06:02 | 41.51612 | 28.64002 | 10665 ft | 283 kts | 337° |
| 2026-05-06 06:03 | 41.53431 | 28.62840 | 10942 ft | 298 kts | 337° |
| 2026-05-06 06:03 | 41.55360 | 28.61596 | 11209 ft | 313 kts | 335° |
| 2026-05-06 06:03 | 41.57247 | 28.60042 | 11459 ft | 329 kts | 327° |
| 2026-05-06 06:03 | 41.59021 | 28.58015 | 11716 ft | 345 kts | 318° |
| 2026-05-06 06:04 | 41.60698 | 28.55633 | 12182 ft | 352 kts | 316° |
| 2026-05-06 06:04 | 41.62340 | 28.53211 | 12749 ft | 355 kts | 315° |
| 2026-05-06 06:04 | 41.63982 | 28.50781 | 13288 ft | 357 kts | 315° |
| 2026-05-06 06:04 | 41.65627 | 28.48299 | 13803 ft | 361 kts | 313° |
| 2026-05-06 06:05 | 41.67101 | 28.45560 | 14310 ft | 367 kts | 306° |
| 2026-05-06 06:05 | 41.68330 | 28.42556 | 14816 ft | 372 kts | 299° |
| 2026-05-06 06:05 | 41.69400 | 28.39387 | 15325 ft | 375 kts | 297° |
| 2026-05-06 06:05 | 41.70444 | 28.36170 | 15822 ft | 377 kts | 297° |
| 2026-05-06 06:06 | 41.71486 | 28.32944 | 16279 ft | 380 kts | 297° |
| 2026-05-06 06:06 | 41.72524 | 28.29737 | 16736 ft | 382 kts | 297° |
| 2026-05-06 06:06 | 41.73598 | 28.26428 | 17197 ft | 385 kts | 297° |
| 2026-05-06 06:06 | 41.74653 | 28.23180 | 17616 ft | 387 kts | 297° |
| 2026-05-06 06:07 | 41.75729 | 28.19868 | 18040 ft | 390 kts | 297° |
| 2026-05-06 06:07 | 41.76817 | 28.16517 | 18466 ft | 392 kts | 297° |
| 2026-05-06 06:07 | 41.77899 | 28.13184 | 18874 ft | 393 kts | 297° |
| 2026-05-06 06:07 | 41.79112 | 28.09873 | 19276 ft | 393 kts | 302° |
| 2026-05-06 06:08 | 41.80506 | 28.06740 | 19674 ft | 393 kts | 306° |
| 2026-05-06 06:08 | 41.82077 | 28.03761 | 20055 ft | 394 kts | 309° |
| 2026-05-06 06:08 | 41.83733 | 28.00800 | 20417 ft | 396 kts | 310° |
| 2026-05-06 06:08 | 41.85391 | 27.97860 | 20798 ft | 397 kts | 310° |
| 2026-05-06 06:09 | 41.87051 | 27.94912 | 21144 ft | 400 kts | 310° |
| 2026-05-06 06:09 | 41.88730 | 27.91925 | 21458 ft | 403 kts | 310° |
| 2026-05-06 06:09 | 41.90414 | 27.88918 | 21778 ft | 405 kts | 310° |
| 2026-05-06 06:09 | 41.92103 | 27.85897 | 22097 ft | 407 kts | 309° |
| 2026-05-06 06:10 | 41.93778 | 27.82900 | 22410 ft | 409 kts | 309° |
| 2026-05-06 06:10 | 41.95517 | 27.79837 | 22716 ft | 410 kts | 311° |
| 2026-05-06 06:10 | 41.97348 | 27.76917 | 23002 ft | 411 kts | 314° |
| 2026-05-06 06:10 | 41.99293 | 27.74133 | 23292 ft | 412 kts | 316° |
| 2026-05-06 06:11 | 42.01313 | 27.71359 | 23575 ft | 414 kts | 317° |
| 2026-05-06 06:11 | 42.03324 | 27.68613 | 23850 ft | 416 kts | 317° |
| 2026-05-06 06:11 | 42.05345 | 27.65851 | 24144 ft | 417 kts | 317° |
| 2026-05-06 06:11 | 42.07386 | 27.63060 | 24433 ft | 419 kts | 316° |
| 2026-05-06 06:12 | 42.09440 | 27.60244 | 24704 ft | 420 kts | 317° |
| 2026-05-06 06:12 | 42.11460 | 27.57473 | 24967 ft | 422 kts | 316° |
| 2026-05-06 06:12 | 42.13525 | 27.54634 | 25252 ft | 423 kts | 316° |
| 2026-05-06 06:12 | 42.15585 | 27.51800 | 25531 ft | 424 kts | 316° |
| 2026-05-06 06:13 | 42.17650 | 27.48956 | 25795 ft | 425 kts | 316° |
| 2026-05-06 06:13 | 42.19712 | 27.46112 | 26047 ft | 426 kts | 316° |
| 2026-05-06 06:13 | 42.21780 | 27.43257 | 26284 ft | 428 kts | 316° |
| 2026-05-06 06:13 | 42.23844 | 27.40405 | 26514 ft | 429 kts | 316° |
| 2026-05-06 06:14 | 42.25940 | 27.37505 | 26748 ft | 430 kts | 316° |
| 2026-05-06 06:14 | 42.28030 | 27.34610 | 27057 ft | 430 kts | 316° |
| 2026-05-06 06:14 | 42.30087 | 27.31760 | 27390 ft | 428 kts | 316° |
| 2026-05-06 06:14 | 42.32174 | 27.28863 | 27724 ft | 427 kts | 316° |
| 2026-05-06 06:15 | 42.34218 | 27.26024 | 28052 ft | 426 kts | 316° |
| 2026-05-06 06:15 | 42.36275 | 27.23164 | 28388 ft | 424 kts | 316° |
| 2026-05-06 06:15 | 42.38334 | 27.20300 | 28725 ft | 423 kts | 316° |
| 2026-05-06 06:15 | 42.40360 | 27.17479 | 29065 ft | 422 kts | 316° |
| 2026-05-06 06:16 | 42.42388 | 27.14649 | 29413 ft | 420 kts | 316° |
| 2026-05-06 06:16 | 42.44434 | 27.11795 | 29757 ft | 418 kts | 316° |
| 2026-05-06 06:16 | 42.46432 | 27.09005 | 30070 ft | 417 kts | 316° |
| 2026-05-06 06:16 | 42.48457 | 27.06171 | 30413 ft | 415 kts | 316° |
| 2026-05-06 06:17 | 42.50457 | 27.03373 | 30727 ft | 414 kts | 316° |
| 2026-05-06 06:17 | 42.52445 | 27.00588 | 31012 ft | 413 kts | 316° |
| 2026-05-06 06:17 | 42.54436 | 26.97795 | 31307 ft | 413 kts | 316° |
| 2026-05-06 06:17 | 42.56442 | 26.94980 | 31589 ft | 412 kts | 316° |
| 2026-05-06 06:18 | 42.58413 | 26.92213 | 31850 ft | 412 kts | 316° |
| 2026-05-06 06:18 | 42.60405 | 26.89411 | 32121 ft | 411 kts | 316° |
| 2026-05-06 06:18 | 42.62366 | 26.86649 | 32377 ft | 411 kts | 316° |
| 2026-05-06 06:18 | 42.64361 | 26.83834 | 32623 ft | 411 kts | 316° |
| 2026-05-06 06:19 | 42.66322 | 26.81066 | 32856 ft | 411 kts | 316° |
| 2026-05-06 06:19 | 42.68309 | 26.78262 | 33102 ft | 411 kts | 316° |
| 2026-05-06 06:19 | 42.70276 | 26.75481 | 33350 ft | 410 kts | 316° |
| 2026-05-06 06:19 | 42.72245 | 26.72693 | 33601 ft | 410 kts | 316° |
| 2026-05-06 06:20 | 42.74202 | 26.69918 | 33845 ft | 409 kts | 316° |
| 2026-05-06 06:20 | 42.76171 | 26.67127 | 34091 ft | 409 kts | 316° |
| 2026-05-06 06:20 | 42.78133 | 26.64341 | 34325 ft | 408 kts | 315° |
| 2026-05-06 06:20 | 42.80028 | 26.61477 | 34501 ft | 409 kts | 312° |
| 2026-05-06 06:21 | 42.81834 | 26.58437 | 34645 ft | 411 kts | 309° |
| 2026-05-06 06:21 | 42.83512 | 26.55274 | 34790 ft | 413 kts | 307° |
| 2026-05-06 06:21 | 42.85095 | 26.52017 | 34947 ft | 414 kts | 306° |
| 2026-05-06 06:21 | 42.86644 | 26.48775 | 35110 ft | 414 kts | 306° |
| 2026-05-06 06:22 | 42.88215 | 26.45474 | 35267 ft | 414 kts | 306° |
| 2026-05-06 06:22 | 42.89772 | 26.42198 | 35399 ft | 415 kts | 306° |
| 2026-05-06 06:22 | 42.91338 | 26.38901 | 35528 ft | 415 kts | 306° |
| 2026-05-06 06:22 | 42.92913 | 26.35581 | 35649 ft | 416 kts | 306° |
| 2026-05-06 06:23 | 42.94488 | 26.32257 | 35762 ft | 417 kts | 305° |
| 2026-05-06 06:23 | 42.96054 | 26.28953 | 35866 ft | 418 kts | 305° |
| 2026-05-06 06:23 | 42.97620 | 26.25642 | 35981 ft | 419 kts | 305° |
| 2026-05-06 06:23 | 42.99189 | 26.22326 | 36029 ft | 419 kts | 305° |
| 2026-05-06 06:24 | 43.02354 | 26.15620 | 36040 ft | 419 kts | 305° |
| 2026-05-06 06:24 | 43.05535 | 26.08862 | 36037 ft | 419 kts | 305° |
| 2026-05-06 06:25 | 43.08672 | 26.02186 | 36028 ft | 418 kts | 305° |
| 2026-05-06 06:26 | 43.13386 | 25.92124 | 36019 ft | 418 kts | 304° |
| 2026-05-06 06:26 | 43.16521 | 25.85412 | 36017 ft | 418 kts | 305° |
| 2026-05-06 06:27 | 43.19622 | 25.78754 | 36013 ft | 419 kts | 305° |
| 2026-05-06 06:27 | 43.22742 | 25.72045 | 36012 ft | 418 kts | 305° |
| 2026-05-06 06:28 | 43.25853 | 25.65340 | 36011 ft | 418 kts | 305° |
| 2026-05-06 06:28 | 43.28967 | 25.58614 | 36015 ft | 418 kts | 304° |
| 2026-05-06 06:29 | 43.32089 | 25.51854 | 36015 ft | 419 kts | 305° |
| 2026-05-06 06:29 | 43.35175 | 25.45159 | 36014 ft | 418 kts | 304° |
| 2026-05-06 06:30 | 43.38271 | 25.38426 | 36010 ft | 419 kts | 304° |
| 2026-05-06 06:30 | 43.41378 | 25.31649 | 36008 ft | 419 kts | 304° |
| 2026-05-06 06:31 | 43.44468 | 25.24896 | 36007 ft | 419 kts | 304° |
| 2026-05-06 06:31 | 43.47555 | 25.18133 | 36007 ft | 418 kts | 304° |
| 2026-05-06 06:32 | 43.50626 | 25.11390 | 36006 ft | 419 kts | 304° |
| 2026-05-06 06:32 | 43.53726 | 25.04570 | 36004 ft | 419 kts | 304° |
| 2026-05-06 06:33 | 43.56805 | 24.97779 | 36000 ft | 418 kts | 304° |
| 2026-05-06 06:33 | 43.59866 | 24.91012 | 35999 ft | 417 kts | 304° |
| 2026-05-06 06:34 | 43.62919 | 24.84241 | 36003 ft | 417 kts | 304° |
| 2026-05-06 06:34 | 43.65974 | 24.77455 | 36007 ft | 417 kts | 304° |
| 2026-05-06 06:35 | 43.69022 | 24.70664 | 36003 ft | 417 kts | 304° |
| 2026-05-06 06:35 | 43.72060 | 24.63880 | 36002 ft | 416 kts | 304° |
| 2026-05-06 06:36 | 43.75170 | 24.57211 | 36003 ft | 416 kts | 307° |
| 2026-05-06 06:36 | 43.78730 | 24.50930 | 36001 ft | 414 kts | 312° |
| 2026-05-06 06:37 | 43.82451 | 24.44910 | 36003 ft | 412 kts | 312° |
| 2026-05-06 06:37 | 43.86158 | 24.38914 | 36007 ft | 412 kts | 312° |
| 2026-05-06 06:38 | 43.89885 | 24.32876 | 36004 ft | 411 kts | 311° |
| 2026-05-06 06:38 | 43.93587 | 24.26860 | 36005 ft | 411 kts | 311° |
| 2026-05-06 06:39 | 43.97276 | 24.20853 | 36002 ft | 412 kts | 311° |
| 2026-05-06 06:39 | 44.00988 | 24.14793 | 36001 ft | 411 kts | 311° |
| 2026-05-06 06:40 | 44.04713 | 24.08702 | 35994 ft | 411 kts | 311° |
| 2026-05-06 06:40 | 44.08387 | 24.02681 | 35992 ft | 411 kts | 311° |
| 2026-05-06 06:41 | 44.12100 | 23.96582 | 35993 ft | 410 kts | 311° |
| 2026-05-06 06:41 | 44.15772 | 23.90537 | 35995 ft | 411 kts | 311° |
| 2026-05-06 06:42 | 44.19428 | 23.84504 | 35994 ft | 410 kts | 311° |
| 2026-05-06 06:42 | 44.23107 | 23.78422 | 35996 ft | 410 kts | 311° |
| 2026-05-06 06:43 | 44.26753 | 23.72382 | 35998 ft | 410 kts | 311° |
| 2026-05-06 06:43 | 44.30431 | 23.66276 | 35999 ft | 410 kts | 311° |
| 2026-05-06 06:44 | 44.34086 | 23.60195 | 36001 ft | 410 kts | 311° |
| 2026-05-06 06:44 | 44.37717 | 23.54141 | 36002 ft | 410 kts | 311° |
| 2026-05-06 06:45 | 44.41366 | 23.48044 | 36002 ft | 410 kts | 311° |
| 2026-05-06 06:45 | 44.44992 | 23.41969 | 36000 ft | 409 kts | 311° |
| 2026-05-06 06:46 | 44.48646 | 23.35840 | 36001 ft | 409 kts | 311° |
| 2026-05-06 06:46 | 44.52258 | 23.29767 | 36004 ft | 409 kts | 310° |
| 2026-05-06 06:47 | 44.55903 | 23.23623 | 36006 ft | 409 kts | 310° |
| 2026-05-06 06:47 | 44.59536 | 23.17488 | 36006 ft | 409 kts | 310° |
| 2026-05-06 06:48 | 44.63139 | 23.11392 | 36008 ft | 409 kts | 310° |
| 2026-05-06 06:48 | 44.66762 | 23.05245 | 36007 ft | 408 kts | 310° |
| 2026-05-06 06:49 | 44.70375 | 22.99103 | 36006 ft | 409 kts | 310° |
| 2026-05-06 06:49 | 44.73975 | 22.92970 | 36005 ft | 409 kts | 310° |
| 2026-05-06 06:50 | 44.77578 | 22.86819 | 36006 ft | 408 kts | 310° |
| 2026-05-06 06:50 | 44.81206 | 22.80613 | 36008 ft | 409 kts | 310° |
| 2026-05-06 06:51 | 44.84801 | 22.74448 | 36011 ft | 408 kts | 310° |
| 2026-05-06 06:51 | 44.88387 | 22.68288 | 36016 ft | 408 kts | 310° |
| 2026-05-06 06:52 | 44.91962 | 22.62133 | 36020 ft | 407 kts | 310° |
| 2026-05-06 06:52 | 44.95539 | 22.55960 | 36024 ft | 407 kts | 310° |
| 2026-05-06 06:53 | 44.99120 | 22.49764 | 36030 ft | 408 kts | 310° |
| 2026-05-06 06:53 | 45.02696 | 22.43565 | 36034 ft | 408 kts | 310° |
| 2026-05-06 06:54 | 45.06273 | 22.37349 | 36035 ft | 408 kts | 310° |
| 2026-05-06 06:54 | 45.09845 | 22.31135 | 36034 ft | 408 kts | 309° |
| 2026-05-06 06:55 | 45.13406 | 22.24920 | 36033 ft | 408 kts | 309° |
| 2026-05-06 06:55 | 45.16978 | 22.18677 | 36032 ft | 407 kts | 309° |
| 2026-05-06 06:56 | 45.20515 | 22.12476 | 36034 ft | 408 kts | 309° |
| 2026-05-06 06:56 | 45.24074 | 22.06225 | 36036 ft | 408 kts | 309° |
| 2026-05-06 06:57 | 45.27608 | 22.00001 | 36036 ft | 407 kts | 309° |
| 2026-05-06 06:57 | 45.31181 | 21.93699 | 36030 ft | 408 kts | 309° |
| 2026-05-06 06:58 | 45.34730 | 21.87426 | 36025 ft | 409 kts | 309° |
| 2026-05-06 06:58 | 45.38275 | 21.81144 | 36022 ft | 409 kts | 309° |
| 2026-05-06 06:59 | 45.41830 | 21.74831 | 36016 ft | 410 kts | 308° |
| 2026-05-06 06:59 | 45.45364 | 21.68539 | 36012 ft | 409 kts | 308° |
| 2026-05-06 07:00 | 45.48902 | 21.62228 | 36008 ft | 410 kts | 308° |
| 2026-05-06 07:00 | 45.52451 | 21.55881 | 36007 ft | 410 kts | 308° |
| 2026-05-06 07:01 | 45.56000 | 21.49524 | 36005 ft | 410 kts | 308° |
| 2026-05-06 07:01 | 45.59530 | 21.43186 | 36000 ft | 410 kts | 308° |
| 2026-05-06 07:02 | 45.63069 | 21.36813 | 36001 ft | 410 kts | 308° |
| 2026-05-06 07:02 | 45.66610 | 21.30426 | 36000 ft | 411 kts | 307° |
| 2026-05-06 07:03 | 45.70148 | 21.24027 | 35999 ft | 411 kts | 307° |
| 2026-05-06 07:03 | 45.73670 | 21.17646 | 35997 ft | 410 kts | 307° |
| 2026-05-06 07:04 | 45.77185 | 21.11259 | 35995 ft | 410 kts | 307° |
| 2026-05-06 07:04 | 45.80706 | 21.04850 | 35985 ft | 410 kts | 307° |
| 2026-05-06 07:05 | 45.84217 | 20.98439 | 35977 ft | 411 kts | 307° |
| 2026-05-06 07:05 | 45.87727 | 20.92021 | 35977 ft | 411 kts | 307° |
| 2026-05-06 07:06 | 45.91260 | 20.85547 | 35975 ft | 411 kts | 307° |
| 2026-05-06 07:06 | 45.94790 | 20.79057 | 35975 ft | 411 kts | 307° |
| 2026-05-06 07:07 | 45.98301 | 20.72590 | 35982 ft | 411 kts | 307° |
| 2026-05-06 07:07 | 46.01797 | 20.66137 | 35975 ft | 411 kts | 307° |
| 2026-05-06 07:08 | 46.05289 | 20.59677 | 35974 ft | 411 kts | 307° |
| 2026-05-06 07:08 | 46.08778 | 20.53204 | 35973 ft | 411 kts | 306° |
| 2026-05-06 07:09 | 46.12275 | 20.46693 | 35973 ft | 411 kts | 306° |
| 2026-05-06 07:09 | 46.15774 | 20.40168 | 35970 ft | 412 kts | 306° |
| 2026-05-06 07:10 | 46.19269 | 20.33691 | 35967 ft | 412 kts | 306° |
| 2026-05-06 07:10 | 46.22802 | 20.27135 | 35966 ft | 412 kts | 306° |
| 2026-05-06 07:11 | 46.26321 | 20.20581 | 35962 ft | 413 kts | 306° |
| 2026-05-06 07:11 | 46.29834 | 20.14022 | 35963 ft | 413 kts | 306° |
| 2026-05-06 07:12 | 46.33324 | 20.07491 | 35964 ft | 413 kts | 305° |
| 2026-05-06 07:12 | 46.36820 | 20.00931 | 35955 ft | 413 kts | 305° |
| 2026-05-06 07:13 | 46.40321 | 19.94342 | 35949 ft | 414 kts | 305° |
| 2026-05-06 07:13 | 46.43822 | 19.87739 | 35949 ft | 414 kts | 305° |
| 2026-05-06 07:14 | 46.47316 | 19.81134 | 35952 ft | 414 kts | 305° |
| 2026-05-06 07:14 | 46.50836 | 19.74467 | 35950 ft | 415 kts | 305° |
| 2026-05-06 07:15 | 46.54332 | 19.67828 | 35947 ft | 416 kts | 305° |
| 2026-05-06 07:15 | 46.57824 | 19.61179 | 35950 ft | 416 kts | 305° |
| 2026-05-06 07:16 | 46.61340 | 19.54470 | 35945 ft | 417 kts | 305° |
| 2026-05-06 07:16 | 46.64825 | 19.47802 | 35946 ft | 416 kts | 305° |
| 2026-05-06 07:17 | 46.68327 | 19.41087 | 35943 ft | 417 kts | 305° |
| 2026-05-06 07:17 | 46.71815 | 19.34385 | 35931 ft | 417 kts | 304° |
| 2026-05-06 07:18 | 46.75319 | 19.27632 | 35932 ft | 417 kts | 304° |
| 2026-05-06 07:18 | 46.78817 | 19.20875 | 35928 ft | 418 kts | 304° |
| 2026-05-06 07:19 | 46.82301 | 19.14130 | 35925 ft | 419 kts | 304° |
| 2026-05-06 07:19 | 46.85791 | 19.07356 | 35925 ft | 419 kts | 304° |
| 2026-05-06 07:20 | 46.89289 | 19.00548 | 35927 ft | 419 kts | 304° |
| 2026-05-06 07:20 | 46.92773 | 18.93753 | 35923 ft | 419 kts | 303° |
| 2026-05-06 07:21 | 46.96255 | 18.86947 | 35922 ft | 420 kts | 303° |
| 2026-05-06 07:21 | 46.99727 | 18.80141 | 35919 ft | 421 kts | 303° |
| 2026-05-06 07:22 | 47.03212 | 18.73291 | 35912 ft | 421 kts | 303° |
| 2026-05-06 07:22 | 47.06701 | 18.66418 | 35913 ft | 421 kts | 303° |
| 2026-05-06 07:23 | 47.10195 | 18.59518 | 35913 ft | 422 kts | 303° |
| 2026-05-06 07:23 | 47.13670 | 18.52639 | 35913 ft | 422 kts | 303° |
| 2026-05-06 07:24 | 47.17155 | 18.45723 | 35909 ft | 422 kts | 303° |
| 2026-05-06 07:24 | 47.20628 | 18.38813 | 35917 ft | 423 kts | 303° |
| 2026-05-06 07:25 | 47.24113 | 18.31860 | 35905 ft | 424 kts | 302° |
| 2026-05-06 07:25 | 47.27611 | 18.24865 | 35903 ft | 423 kts | 302° |
| 2026-05-06 07:26 | 47.31075 | 18.17919 | 35903 ft | 424 kts | 302° |
| 2026-05-06 07:26 | 47.34560 | 18.10915 | 35894 ft | 424 kts | 302° |
| 2026-05-06 07:27 | 47.38049 | 18.03870 | 35888 ft | 424 kts | 302° |
| 2026-05-06 07:27 | 47.41520 | 17.96848 | 35890 ft | 425 kts | 302° |
| 2026-05-06 07:28 | 47.44976 | 17.89849 | 35892 ft | 425 kts | 302° |
| 2026-05-06 07:28 | 47.50190 | 17.79270 | 35893 ft | 426 kts | 302° |
| 2026-05-06 07:29 | 47.53664 | 17.72190 | 35885 ft | 427 kts | 302° |
| 2026-05-06 07:29 | 47.57133 | 17.65101 | 35881 ft | 427 kts | 302° |
| 2026-05-06 07:30 | 47.60612 | 17.57973 | 35877 ft | 427 kts | 302° |
| 2026-05-06 07:30 | 47.64086 | 17.50835 | 35885 ft | 427 kts | 302° |
| 2026-05-06 07:31 | 47.67553 | 17.43693 | 35872 ft | 428 kts | 302° |
| 2026-05-06 07:31 | 47.71014 | 17.36551 | 35867 ft | 427 kts | 302° |
| 2026-05-06 07:32 | 47.74479 | 17.29371 | 35859 ft | 428 kts | 301° |
| 2026-05-06 07:32 | 47.77932 | 17.22197 | 35861 ft | 429 kts | 301° |
| 2026-05-06 07:33 | 47.81337 | 17.14916 | 35851 ft | 428 kts | 298° |
| 2026-05-06 07:33 | 47.84251 | 17.07248 | 35845 ft | 426 kts | 292° |
| 2026-05-06 07:34 | 47.86688 | 16.99207 | 35846 ft | 425 kts | 290° |
| 2026-05-06 07:34 | 47.89032 | 16.91154 | 35846 ft | 424 kts | 290° |
| 2026-05-06 07:35 | 47.91365 | 16.83112 | 35845 ft | 425 kts | 290° |
| 2026-05-06 07:35 | 47.93712 | 16.75011 | 35848 ft | 424 kts | 290° |
| 2026-05-06 07:36 | 47.96064 | 16.66865 | 35852 ft | 424 kts | 290° |
| 2026-05-06 07:36 | 47.98377 | 16.58827 | 35847 ft | 424 kts | 290° |
| 2026-05-06 07:37 | 48.00704 | 16.50716 | 35844 ft | 424 kts | 290° |
| 2026-05-06 07:37 | 48.03022 | 16.42612 | 35844 ft | 425 kts | 290° |
| 2026-05-06 07:38 | 48.05340 | 16.34478 | 35840 ft | 425 kts | 289° |
| 2026-05-06 07:38 | 48.07638 | 16.26388 | 35841 ft | 425 kts | 289° |
| 2026-05-06 07:39 | 48.09940 | 16.18259 | 35841 ft | 425 kts | 289° |
| 2026-05-06 07:39 | 48.12234 | 16.10125 | 35843 ft | 424 kts | 288° |
| 2026-05-06 07:40 | 48.14520 | 16.01998 | 35837 ft | 423 kts | 288° |
| 2026-05-06 07:40 | 48.16801 | 15.93855 | 35826 ft | 424 kts | 288° |
| 2026-05-06 07:41 | 48.19058 | 15.85777 | 35820 ft | 423 kts | 288° |
| 2026-05-06 07:41 | 48.21323 | 15.77634 | 35814 ft | 423 kts | 288° |
| 2026-05-06 07:42 | 48.23580 | 15.69497 | 35810 ft | 423 kts | 288° |
| 2026-05-06 07:42 | 48.25822 | 15.61382 | 35812 ft | 424 kts | 288° |
| 2026-05-06 07:43 | 48.28077 | 15.53197 | 35816 ft | 424 kts | 288° |
| 2026-05-06 07:43 | 48.30307 | 15.45075 | 35817 ft | 423 kts | 288° |
| 2026-05-06 07:44 | 48.32538 | 15.36918 | 35817 ft | 423 kts | 288° |
| 2026-05-06 07:44 | 48.34756 | 15.28785 | 35815 ft | 421 kts | 287° |
| 2026-05-06 07:45 | 48.36966 | 15.20655 | 35813 ft | 421 kts | 287° |
| 2026-05-06 07:45 | 48.39178 | 15.12476 | 35814 ft | 421 kts | 287° |
| 2026-05-06 07:46 | 48.41366 | 15.04370 | 35812 ft | 421 kts | 287° |
| 2026-05-06 07:46 | 48.43560 | 14.96212 | 35814 ft | 421 kts | 287° |
| 2026-05-06 07:47 | 48.45738 | 14.88079 | 35816 ft | 421 kts | 287° |
| 2026-05-06 07:47 | 48.47913 | 14.79931 | 35817 ft | 421 kts | 287° |
| 2026-05-06 07:48 | 48.50099 | 14.71713 | 35815 ft | 421 kts | 287° |
| 2026-05-06 07:48 | 48.52266 | 14.63538 | 35813 ft | 420 kts | 287° |
| 2026-05-06 07:49 | 48.54416 | 14.55404 | 35808 ft | 421 kts | 287° |
| 2026-05-06 07:49 | 48.56578 | 14.47189 | 35802 ft | 421 kts | 287° |
| 2026-05-06 07:50 | 48.58731 | 14.38981 | 35802 ft | 420 kts | 286° |
| 2026-05-06 07:50 | 48.60857 | 14.30846 | 35801 ft | 420 kts | 285° |
| 2026-05-06 07:51 | 48.62998 | 14.22622 | 35794 ft | 421 kts | 285° |
| 2026-05-06 07:51 | 48.65135 | 14.14390 | 35802 ft | 420 kts | 285° |
| 2026-05-06 07:52 | 48.67251 | 14.06206 | 35801 ft | 420 kts | 285° |
| 2026-05-06 07:52 | 48.69363 | 13.98003 | 35797 ft | 419 kts | 285° |
| 2026-05-06 07:53 | 48.71477 | 13.89770 | 35804 ft | 419 kts | 285° |
| 2026-05-06 07:53 | 48.73575 | 13.81560 | 35806 ft | 420 kts | 285° |
| 2026-05-06 07:54 | 48.75676 | 13.73312 | 35807 ft | 420 kts | 285° |
| 2026-05-06 07:54 | 48.77715 | 13.65065 | 35806 ft | 420 kts | 284° |
| 2026-05-06 07:55 | 48.79702 | 13.56741 | 35804 ft | 420 kts | 284° |
| 2026-05-06 07:55 | 48.81674 | 13.48453 | 35810 ft | 420 kts | 284° |
| 2026-05-06 07:56 | 48.83650 | 13.40135 | 35810 ft | 421 kts | 284° |
| 2026-05-06 07:56 | 48.85628 | 13.31775 | 35807 ft | 421 kts | 283° |
| 2026-05-06 07:57 | 48.87586 | 13.23472 | 35808 ft | 420 kts | 284° |
| 2026-05-06 07:57 | 48.89548 | 13.15123 | 35807 ft | 420 kts | 284° |
| 2026-05-06 07:58 | 48.91507 | 13.06755 | 35805 ft | 420 kts | 284° |
| 2026-05-06 07:58 | 48.93454 | 12.98410 | 35807 ft | 420 kts | 284° |
| 2026-05-06 07:59 | 48.95383 | 12.90102 | 35794 ft | 421 kts | 284° |
| 2026-05-06 07:59 | 48.97327 | 12.81704 | 35795 ft | 421 kts | 284° |
| 2026-05-06 08:00 | 48.99266 | 12.73292 | 35794 ft | 421 kts | 284° |
| 2026-05-06 08:00 | 49.01181 | 12.64948 | 35801 ft | 422 kts | 284° |
| 2026-05-06 08:01 | 49.03114 | 12.56502 | 35793 ft | 422 kts | 284° |
| 2026-05-06 08:01 | 49.05031 | 12.48077 | 35769 ft | 422 kts | 284° |
| 2026-05-06 08:02 | 49.06937 | 12.39678 | 35750 ft | 423 kts | 284° |
| 2026-05-06 08:02 | 49.08858 | 12.31171 | 35776 ft | 423 kts | 283° |
| 2026-05-06 08:03 | 49.10762 | 12.22714 | 35763 ft | 424 kts | 283° |
| 2026-05-06 08:03 | 49.12658 | 12.14253 | 35757 ft | 424 kts | 283° |
| 2026-05-06 08:04 | 49.14556 | 12.05758 | 35769 ft | 424 kts | 283° |
| 2026-05-06 08:04 | 49.16452 | 11.97227 | 35779 ft | 424 kts | 283° |
| 2026-05-06 08:05 | 49.18350 | 11.88654 | 35772 ft | 425 kts | 283° |
| 2026-05-06 08:05 | 49.20224 | 11.80148 | 35786 ft | 425 kts | 283° |
| 2026-05-06 08:06 | 49.22105 | 11.71596 | 35786 ft | 426 kts | 283° |
| 2026-05-06 08:06 | 49.23984 | 11.63009 | 35787 ft | 427 kts | 283° |
| 2026-05-06 08:07 | 49.25849 | 11.54447 | 35791 ft | 427 kts | 283° |
| 2026-05-06 08:07 | 49.27716 | 11.45836 | 35785 ft | 428 kts | 283° |
| 2026-05-06 08:08 | 49.29584 | 11.37181 | 35780 ft | 428 kts | 284° |
| 2026-05-06 08:08 | 49.31436 | 11.28568 | 35779 ft | 429 kts | 283° |
| 2026-05-06 08:09 | 49.33302 | 11.19861 | 35778 ft | 430 kts | 283° |
| 2026-05-06 08:09 | 49.35148 | 11.11202 | 35785 ft | 430 kts | 283° |
| 2026-05-06 08:10 | 49.37000 | 11.02470 | 35777 ft | 430 kts | 283° |
| 2026-05-06 08:10 | 49.39017 | 10.93841 | 35772 ft | 433 kts | 288° |
| 2026-05-06 08:11 | 49.41584 | 10.85432 | 35771 ft | 436 kts | 291° |
| 2026-05-06 08:11 | 49.42935 | 10.81276 | 35948 ft | 435 kts | 291° |
| 2026-05-06 08:11 | 49.44276 | 10.77154 | 35876 ft | 436 kts | 291° |
| 2026-05-06 08:12 | 49.46982 | 10.68811 | 35800 ft | 436 kts | 291° |
| 2026-05-06 08:12 | 49.49664 | 10.60495 | 35773 ft | 436 kts | 292° |
| 2026-05-06 08:13 | 49.52350 | 10.52140 | 35778 ft | 437 kts | 292° |
| 2026-05-06 08:13 | 49.55029 | 10.43776 | 35781 ft | 437 kts | 292° |
| 2026-05-06 08:14 | 49.57714 | 10.35364 | 35782 ft | 437 kts | 292° |
| 2026-05-06 08:14 | 49.60362 | 10.27039 | 35771 ft | 436 kts | 291° |
| 2026-05-06 08:15 | 49.63029 | 10.18624 | 35762 ft | 436 kts | 291° |
| 2026-05-06 08:15 | 49.65688 | 10.10209 | 35767 ft | 437 kts | 291° |
| 2026-05-06 08:16 | 49.68343 | 10.01774 | 35771 ft | 438 kts | 291° |
| 2026-05-06 08:16 | 49.70999 | 9.93311 | 35772 ft | 438 kts | 291° |
| 2026-05-06 08:17 | 49.73660 | 9.84798 | 35760 ft | 439 kts | 292° |
| 2026-05-06 08:17 | 49.76301 | 9.76322 | 35756 ft | 439 kts | 291° |
| 2026-05-06 08:18 | 49.78932 | 9.67852 | 35765 ft | 439 kts | 292° |
| 2026-05-06 08:18 | 49.81556 | 9.59376 | 35762 ft | 438 kts | 292° |
| 2026-05-06 08:19 | 49.84181 | 9.50866 | 35755 ft | 439 kts | 292° |
| 2026-05-06 08:19 | 49.86796 | 9.42354 | 35752 ft | 439 kts | 292° |
| 2026-05-06 08:20 | 49.89400 | 9.33854 | 35745 ft | 439 kts | 291° |
| 2026-05-06 08:20 | 49.92003 | 9.25323 | 35742 ft | 439 kts | 292° |
| 2026-05-06 08:21 | 49.94604 | 9.16769 | 35750 ft | 440 kts | 292° |
| 2026-05-06 08:21 | 49.97204 | 9.08191 | 35748 ft | 440 kts | 292° |
| 2026-05-06 08:22 | 49.99798 | 8.99604 | 35750 ft | 440 kts | 292° |
| 2026-05-06 08:22 | 50.02386 | 8.91002 | 35762 ft | 440 kts | 292° |
| 2026-05-06 08:23 | 50.04961 | 8.82395 | 35764 ft | 439 kts | 291° |
| 2026-05-06 08:23 | 50.07202 | 8.73663 | 35767 ft | 438 kts | 288° |
| 2026-05-06 08:24 | 50.09299 | 8.64789 | 35773 ft | 439 kts | 287° |
| 2026-05-06 08:24 | 50.11396 | 8.55862 | 35776 ft | 439 kts | 287° |
| 2026-05-06 08:25 | 50.13490 | 8.46930 | 35780 ft | 441 kts | 288° |
| 2026-05-06 08:25 | 50.15579 | 8.37989 | 35782 ft | 441 kts | 288° |
| 2026-05-06 08:26 | 50.17652 | 8.29078 | 35781 ft | 441 kts | 287° |
| 2026-05-06 08:26 | 50.19733 | 8.20105 | 35784 ft | 440 kts | 287° |
| 2026-05-06 08:27 | 50.21803 | 8.11134 | 35777 ft | 440 kts | 287° |
| 2026-05-06 08:27 | 50.23862 | 8.02173 | 35775 ft | 440 kts | 287° |
| 2026-05-06 08:28 | 50.25918 | 7.93193 | 35766 ft | 440 kts | 287° |
| 2026-05-06 08:28 | 50.27971 | 7.84185 | 35753 ft | 441 kts | 287° |
| 2026-05-06 08:29 | 50.30020 | 7.75146 | 35754 ft | 442 kts | 287° |
| 2026-05-06 08:29 | 50.32056 | 7.66137 | 35751 ft | 442 kts | 287° |
| 2026-05-06 08:30 | 50.34082 | 7.57135 | 35756 ft | 443 kts | 287° |
| 2026-05-06 08:30 | 50.36117 | 7.48050 | 35752 ft | 443 kts | 287° |
| 2026-05-06 08:31 | 50.38141 | 7.38976 | 35755 ft | 443 kts | 287° |
| 2026-05-06 08:31 | 50.40170 | 7.29840 | 35756 ft | 443 kts | 287° |
| 2026-05-06 08:32 | 50.42169 | 7.20796 | 35759 ft | 443 kts | 287° |
| 2026-05-06 08:32 | 50.44170 | 7.11707 | 35754 ft | 443 kts | 287° |
| 2026-05-06 08:33 | 50.46178 | 7.02538 | 35761 ft | 444 kts | 287° |
| 2026-05-06 08:33 | 50.48167 | 6.93423 | 35759 ft | 444 kts | 287° |
| 2026-05-06 08:34 | 50.51089 | 6.79655 | 35761 ft | 443 kts | 284° |
| 2026-05-06 08:35 | 50.52807 | 6.70379 | 35762 ft | 444 kts | 284° |
| 2026-05-06 08:35 | 50.54505 | 6.61075 | 35763 ft | 443 kts | 284° |
| 2026-05-06 08:36 | 50.56195 | 6.51785 | 35762 ft | 443 kts | 284° |
| 2026-05-06 08:36 | 50.57879 | 6.42495 | 35765 ft | 443 kts | 284° |
| 2026-05-06 08:37 | 50.59557 | 6.33193 | 35770 ft | 443 kts | 284° |
| 2026-05-06 08:37 | 50.61227 | 6.23882 | 35782 ft | 443 kts | 284° |
| 2026-05-06 08:38 | 50.62880 | 6.14624 | 35771 ft | 443 kts | 284° |
| 2026-05-06 08:38 | 50.64540 | 6.05281 | 35788 ft | 444 kts | 284° |
| 2026-05-06 08:39 | 50.66189 | 5.95944 | 35786 ft | 444 kts | 284° |
| 2026-05-06 08:39 | 50.67834 | 5.86573 | 35805 ft | 444 kts | 284° |
| 2026-05-06 08:40 | 50.69472 | 5.77206 | 35812 ft | 443 kts | 284° |
| 2026-05-06 08:40 | 50.71088 | 5.67914 | 35817 ft | 443 kts | 284° |
| 2026-05-06 08:41 | 50.72701 | 5.58587 | 35816 ft | 443 kts | 284° |
| 2026-05-06 08:41 | 50.74309 | 5.49240 | 35814 ft | 443 kts | 284° |
| 2026-05-06 08:42 | 50.75914 | 5.39869 | 35827 ft | 443 kts | 284° |
| 2026-05-06 08:42 | 50.77501 | 5.30548 | 35830 ft | 443 kts | 284° |
| 2026-05-06 08:43 | 50.79089 | 5.21162 | 35829 ft | 443 kts | 284° |
| 2026-05-06 08:43 | 50.80673 | 5.11752 | 35826 ft | 443 kts | 284° |
| 2026-05-06 08:44 | 50.82245 | 5.02367 | 35827 ft | 443 kts | 284° |
| 2026-05-06 08:44 | 50.83807 | 4.92995 | 35832 ft | 442 kts | 284° |
| 2026-05-06 08:45 | 50.85365 | 4.83584 | 35832 ft | 442 kts | 284° |
| 2026-05-06 08:45 | 50.86909 | 4.74196 | 35838 ft | 444 kts | 284° |
| 2026-05-06 08:46 | 50.88459 | 4.64807 | 35846 ft | 444 kts | 285° |
| 2026-05-06 08:46 | 50.90440 | 4.55534 | 35848 ft | 445 kts | 291° |
| 2026-05-06 08:47 | 50.93041 | 4.46681 | 35844 ft | 446 kts | 297° |
| 2026-05-06 08:47 | 50.96171 | 4.38227 | 35845 ft | 447 kts | 301° |
| 2026-05-06 08:48 | 50.99379 | 4.29902 | 35867 ft | 447 kts | 300° |
| 2026-05-06 08:48 | 51.02605 | 4.21485 | 35862 ft | 446 kts | 300° |
| 2026-05-06 08:49 | 51.05821 | 4.13047 | 35864 ft | 446 kts | 300° |
| 2026-05-06 08:49 | 51.09002 | 4.04659 | 35864 ft | 447 kts | 300° |
| 2026-05-06 08:50 | 51.12195 | 3.96215 | 35868 ft | 447 kts | 300° |
| 2026-05-06 08:50 | 51.15388 | 3.87741 | 35864 ft | 447 kts | 300° |
| 2026-05-06 08:51 | 51.18589 | 3.79218 | 35867 ft | 447 kts | 300° |
| 2026-05-06 08:51 | 51.21755 | 3.70760 | 35869 ft | 447 kts | 300° |
| 2026-05-06 08:52 | 51.24922 | 3.62265 | 35872 ft | 447 kts | 300° |
| 2026-05-06 08:52 | 51.28091 | 3.53733 | 35874 ft | 447 kts | 300° |
| 2026-05-06 08:53 | 51.31243 | 3.45210 | 35877 ft | 447 kts | 300° |
| 2026-05-06 08:53 | 51.34268 | 3.36594 | 35878 ft | 446 kts | 296° |
| 2026-05-06 08:54 | 51.36885 | 3.26888 | 35880 ft | 446 kts | 290° |
| 2026-05-06 08:54 | 51.39052 | 3.17685 | 35882 ft | 446 kts | 290° |
| 2026-05-06 08:55 | 51.41232 | 3.08413 | 35887 ft | 446 kts | 290° |
| 2026-05-06 08:55 | 51.43420 | 2.99123 | 35882 ft | 445 kts | 290° |
| 2026-05-06 08:55 | 51.44501 | 2.94512 | 35710 ft | 445 kts | 290° |
| 2026-05-06 08:56 | 51.45594 | 2.89836 | 35523 ft | 442 kts | 290° |
| 2026-05-06 08:56 | 51.46657 | 2.85282 | 35334 ft | 440 kts | 290° |
| 2026-05-06 08:56 | 51.47726 | 2.80686 | 35142 ft | 439 kts | 290° |
| 2026-05-06 08:56 | 51.48780 | 2.76149 | 34941 ft | 437 kts | 290° |
| 2026-05-06 08:57 | 51.49835 | 2.71603 | 34713 ft | 435 kts | 290° |
| 2026-05-06 08:57 | 51.50883 | 2.67072 | 34482 ft | 435 kts | 290° |
| 2026-05-06 08:57 | 51.51934 | 2.62519 | 34230 ft | 435 kts | 290° |
| 2026-05-06 08:57 | 51.52972 | 2.58005 | 33973 ft | 434 kts | 290° |
| 2026-05-06 08:58 | 51.54019 | 2.53454 | 33716 ft | 435 kts | 290° |
| 2026-05-06 08:58 | 51.54714 | 2.50425 | 33530 ft | 436 kts | 290° |
| 2026-05-06 08:58 | 51.56110 | 2.44332 | 32993 ft | 437 kts | 290° |
| 2026-05-06 08:58 | 51.57143 | 2.39805 | 32442 ft | 438 kts | 289° |
| 2026-05-06 08:59 | 51.58186 | 2.35225 | 31810 ft | 438 kts | 289° |
| 2026-05-06 08:59 | 51.59237 | 2.30616 | 31087 ft | 440 kts | 289° |
| 2026-05-06 08:59 | 51.60280 | 2.26039 | 30319 ft | 442 kts | 289° |
| 2026-05-06 08:59 | 51.61343 | 2.21353 | 29598 ft | 442 kts | 289° |
| 2026-05-06 09:00 | 51.62386 | 2.16740 | 28885 ft | 444 kts | 289° |
| 2026-05-06 09:00 | 51.63428 | 2.12124 | 28147 ft | 443 kts | 289° |
| 2026-05-06 09:00 | 51.64465 | 2.07523 | 27615 ft | 437 kts | 289° |
| 2026-05-06 09:00 | 51.65492 | 2.02959 | 27079 ft | 432 kts | 289° |
| 2026-05-06 09:01 | 51.66502 | 1.98450 | 26747 ft | 430 kts | 289° |
| 2026-05-06 09:01 | 51.67520 | 1.93896 | 26430 ft | 428 kts | 289° |
| 2026-05-06 09:01 | 51.68520 | 1.89413 | 26167 ft | 427 kts | 289° |
| 2026-05-06 09:01 | 51.69520 | 1.84918 | 25935 ft | 425 kts | 289° |
| 2026-05-06 09:02 | 51.70512 | 1.80448 | 25725 ft | 423 kts | 289° |
| 2026-05-06 09:02 | 51.71488 | 1.76043 | 25529 ft | 421 kts | 289° |
| 2026-05-06 09:02 | 51.72468 | 1.71611 | 25338 ft | 420 kts | 289° |
| 2026-05-06 09:02 | 51.73124 | 1.68636 | 25213 ft | 419 kts | 289° |
| 2026-05-06 09:03 | 51.74328 | 1.62736 | 24957 ft | 416 kts | 282° |
| 2026-05-06 09:03 | 51.74583 | 1.58150 | 24847 ft | 413 kts | 268° |
| 2026-05-06 09:03 | 51.74355 | 1.53554 | 24417 ft | 411 kts | 264° |
| 2026-05-06 09:03 | 51.74049 | 1.49035 | 23945 ft | 405 kts | 263° |
| 2026-05-06 09:04 | 51.73735 | 1.44564 | 23394 ft | 401 kts | 263° |
| 2026-05-06 09:04 | 51.73430 | 1.40147 | 22845 ft | 398 kts | 264° |
| 2026-05-06 09:04 | 51.73128 | 1.35703 | 22290 ft | 395 kts | 264° |
| 2026-05-06 09:04 | 51.72837 | 1.31347 | 21754 ft | 391 kts | 263° |
| 2026-05-06 09:05 | 51.72545 | 1.26983 | 21195 ft | 388 kts | 263° |
| 2026-05-06 09:05 | 51.72260 | 1.22715 | 20656 ft | 385 kts | 264° |
| 2026-05-06 09:05 | 51.71977 | 1.18480 | 20120 ft | 382 kts | 264° |
| 2026-05-06 09:05 | 51.71693 | 1.14226 | 19590 ft | 379 kts | 264° |
| 2026-05-06 09:06 | 51.71410 | 1.10029 | 19074 ft | 376 kts | 264° |
| 2026-05-06 09:06 | 51.71127 | 1.05881 | 18542 ft | 373 kts | 264° |
| 2026-05-06 09:06 | 51.70850 | 1.01800 | 18011 ft | 370 kts | 264° |
| 2026-05-06 09:06 | 51.70567 | 0.97671 | 17481 ft | 368 kts | 264° |
| 2026-05-06 09:07 | 51.70288 | 0.93615 | 16950 ft | 366 kts | 264° |
| 2026-05-06 09:07 | 51.70006 | 0.89549 | 16416 ft | 363 kts | 264° |
| 2026-05-06 09:07 | 51.69726 | 0.85520 | 15878 ft | 362 kts | 264° |
| 2026-05-06 09:07 | 51.69449 | 0.81551 | 15355 ft | 360 kts | 264° |
| 2026-05-06 09:08 | 51.69168 | 0.77571 | 14837 ft | 357 kts | 264° |
| 2026-05-06 09:08 | 51.68890 | 0.73652 | 14329 ft | 355 kts | 264° |
| 2026-05-06 09:08 | 51.68608 | 0.69683 | 13811 ft | 353 kts | 264° |
| 2026-05-06 09:08 | 51.68333 | 0.65814 | 13312 ft | 351 kts | 265° |
| 2026-05-06 09:09 | 51.68055 | 0.61925 | 12808 ft | 349 kts | 265° |
| 2026-05-06 09:09 | 51.67777 | 0.58073 | 12228 ft | 349 kts | 265° |
| 2026-05-06 09:09 | 51.67497 | 0.54206 | 11697 ft | 348 kts | 265° |
| 2026-05-06 09:09 | 51.67220 | 0.50401 | 11220 ft | 345 kts | 265° |
| 2026-05-06 09:10 | 51.66943 | 0.46598 | 10769 ft | 341 kts | 265° |
| 2026-05-06 09:10 | 51.66668 | 0.42806 | 10343 ft | 339 kts | 265° |
| 2026-05-06 09:10 | 51.66409 | 0.39066 | 9922 ft | 337 kts | 265° |
| 2026-05-06 09:10 | 51.66154 | 0.35340 | 9498 ft | 335 kts | 266° |
| 2026-05-06 09:11 | 51.65896 | 0.31669 | 9076 ft | 332 kts | 265° |
| 2026-05-06 09:11 | 51.65650 | 0.27979 | 8646 ft | 330 kts | 266° |
| 2026-05-06 09:11 | 51.65418 | 0.24352 | 8223 ft | 328 kts | 266° |
| 2026-05-06 09:11 | 51.65180 | 0.20686 | 7968 ft | 326 kts | 266° |
| 2026-05-06 09:12 | 51.64942 | 0.17098 | 7961 ft | 327 kts | 266° |
| 2026-05-06 09:12 | 51.64699 | 0.13461 | 7963 ft | 328 kts | 266° |
| 2026-05-06 09:12 | 51.64450 | 0.09789 | 7964 ft | 328 kts | 266° |
| 2026-05-06 09:12 | 51.64204 | 0.06171 | 7964 ft | 328 kts | 266° |
| 2026-05-06 09:13 | 51.63955 | 0.02492 | 7964 ft | 328 kts | 266° |
| 2026-05-06 09:13 | 51.63710 | -0.01116 | 7964 ft | 328 kts | 266° |
| 2026-05-06 09:13 | 51.63459 | -0.04799 | 7963 ft | 328 kts | 266° |
| 2026-05-06 09:13 | 51.63211 | -0.08432 | 7964 ft | 328 kts | 266° |
| 2026-05-06 09:14 | 51.62965 | -0.12019 | 7966 ft | 327 kts | 266° |
| 2026-05-06 09:14 | 51.62715 | -0.15654 | 7967 ft | 327 kts | 266° |
| 2026-05-06 09:14 | 51.62467 | -0.19220 | 7962 ft | 312 kts | 266° |
| 2026-05-06 09:14 | 51.62227 | -0.22543 | 7896 ft | 290 kts | 266° |
| 2026-05-06 09:15 | 51.61997 | -0.25671 | 7504 ft | 277 kts | 266° |
| 2026-05-06 09:15 | 51.61761 | -0.28723 | 7081 ft | 272 kts | 266° |
| 2026-05-06 09:15 | 51.61552 | -0.31738 | 6979 ft | 271 kts | 268° |
| 2026-05-06 09:15 | 51.61371 | -0.34763 | 6977 ft | 272 kts | 268° |
| 2026-05-06 09:16 | 51.61196 | -0.37775 | 6977 ft | 272 kts | 268° |
| 2026-05-06 09:16 | 51.61020 | -0.40827 | 6976 ft | 272 kts | 268° |
| 2026-05-06 09:16 | 51.60847 | -0.43830 | 6977 ft | 273 kts | 268° |
| 2026-05-06 09:16 | 51.60672 | -0.46884 | 6976 ft | 272 kts | 268° |
| 2026-05-06 09:17 | 51.60500 | -0.49891 | 6978 ft | 272 kts | 268° |
| 2026-05-06 09:17 | 51.60326 | -0.52935 | 6982 ft | 272 kts | 268° |
| 2026-05-06 09:17 | 51.60152 | -0.55932 | 6984 ft | 272 kts | 268° |
| 2026-05-06 09:17 | 51.59975 | -0.58958 | 6988 ft | 271 kts | 268° |
| 2026-05-06 09:18 | 51.59805 | -0.61959 | 6986 ft | 271 kts | 269° |
| 2026-05-06 09:18 | 51.59677 | -0.64988 | 6987 ft | 271 kts | 270° |
| 2026-05-06 09:18 | 51.59562 | -0.68025 | 6992 ft | 271 kts | 269° |
| 2026-05-06 09:18 | 51.59450 | -0.71035 | 6993 ft | 271 kts | 270° |
| 2026-05-06 09:19 | 51.59337 | -0.74092 | 6991 ft | 270 kts | 270° |
| 2026-05-06 09:19 | 51.59228 | -0.77086 | 6991 ft | 271 kts | 270° |
| 2026-05-06 09:19 | 51.59119 | -0.80100 | 6995 ft | 271 kts | 270° |
| 2026-05-06 09:19 | 51.59010 | -0.83113 | 6997 ft | 270 kts | 270° |
| 2026-05-06 09:20 | 51.58900 | -0.86151 | 6993 ft | 270 kts | 270° |
| 2026-05-06 09:20 | 51.58789 | -0.89160 | 6994 ft | 270 kts | 270° |
| 2026-05-06 09:20 | 51.58674 | -0.92178 | 6998 ft | 271 kts | 270° |
| 2026-05-06 09:20 | 51.58503 | -0.95173 | 6992 ft | 273 kts | 261° |
| 2026-05-06 09:21 | 51.57682 | -0.97948 | 6990 ft | 280 kts | 233° |
| 2026-05-06 09:21 | 51.56147 | -0.99858 | 6997 ft | 286 kts | 206° |
| 2026-05-06 09:21 | 51.54213 | -1.00501 | 6990 ft | 290 kts | 179° |
| 2026-05-06 09:21 | 51.52259 | -0.99710 | 6959 ft | 287 kts | 152° |
| 2026-05-06 09:22 | 51.50744 | -0.97745 | 6623 ft | 282 kts | 128° |
| 2026-05-06 09:22 | 51.49587 | -0.95239 | 6194 ft | 282 kts | 122° |
| 2026-05-06 09:22 | 51.48506 | -0.92599 | 5814 ft | 280 kts | 116° |
| 2026-05-06 09:22 | 51.47759 | -0.89771 | 5468 ft | 273 kts | 102° |
| 2026-05-06 09:23 | 51.47472 | -0.86809 | 5073 ft | 269 kts | 88° |
| 2026-05-06 09:23 | 51.47530 | -0.83843 | 4575 ft | 271 kts | 83° |
| 2026-05-06 09:23 | 51.47639 | -0.80873 | 4065 ft | 265 kts | 84° |
| 2026-05-06 09:23 | 51.47692 | -0.77988 | 3686 ft | 252 kts | 85° |
| 2026-05-06 09:24 | 51.47705 | -0.75272 | 3352 ft | 240 kts | 86° |
| 2026-05-06 09:24 | 51.47705 | -0.72589 | 3025 ft | 235 kts | 86° |
| 2026-05-06 09:24 | 51.47703 | -0.70029 | 2716 ft | 229 kts | 86° |
| 2026-05-06 09:24 | 51.47703 | -0.67497 | 2407 ft | 221 kts | 86° |
| 2026-05-06 09:25 | 51.47704 | -0.65113 | 2111 ft | 209 kts | 85° |
| 2026-05-06 09:25 | 51.47707 | -0.62896 | 1930 ft | 193 kts | 85° |
| 2026-05-06 09:25 | 51.47710 | -0.60811 | 1650 ft | 183 kts | 85° |
| 2026-05-06 09:25 | 51.47715 | -0.58801 | 1373 ft | 174 kts | 85° |
| 2026-05-06 09:26 | 51.47719 | -0.56946 | 1149 ft | 161 kts | 85° |
| 2026-05-06 09:26 | 51.47723 | -0.55220 | 917 ft | 150 kts | 84° |
| 2026-05-06 09:26 | 51.47723 | -0.53621 | 693 ft | 139 kts | 85° |
| 2026-05-06 09:26 | 51.47718 | -0.52053 | 486 ft | 137 kts | 85° |
| 2026-05-06 09:27 | 51.47725 | -0.50535 | 323 ft | 137 kts | 85° |
| 2026-05-06 09:27 | 51.47742 | -0.48997 | 168 ft | 136 kts | 85° |
| 2026-05-06 09:27 | 51.47754 | -0.47574 | 86 ft | 117 kts | 88° |